Etusivu
METAR-TAF:

METAR-TAF

Lentoasemat :

Katima Mulilo, Namibia

Leveyspiiri: 17-38-04S, Pituuspiiri: 024-10-36E, korkeus merenpinnasta: 985 m

Tämänhetkinen sää

Tämä raportti tehtiin 29 minuuttia sitten, kello 12.00 UTC
Tuuli 4 kn idästä
Lämpötila 30°C
Kosteus 13%
Ilmanpaine 1020 hPa
Näkyvyys 10 km tai enemmän
ei pilviä alle 1500 m:ssä eikä cumulonimbus-pilviä

METAR: FYKM 131200Z 09004KT CAVOK 30/M01 Q1020

Aika: 14:29 (12:29 UTC)

Sääennuste

Tämä raportti tehtiin 1 tunti ja 29 minuuttia sitten, kello 11.00 UTC
Ennuste voimassa 13. päivästä klo 12 UTC - 13. päivään klo 21 UTC
Tuuli 5 kn idästä/koillisesta
Näkyvyys 10 km tai enemmän
ei pilviä alle 1500 m:ssä eikä cumulonimbus-pilviä

TAF: FYKM 131100Z 1312/1321 06005KT CAVOK

Säähavainnot ja -ennusteet yli 4000 lentoasemalta (METAR- ja TAF-raportit).

Käytössä olevat sääasemat on merkitty karttaan keltaisilla ja punaisilla pisteillä.

Aseta hiiri pisteen päälle nähdäksesi sääaseman nimen.

Klikkaa sitten nähdäksesi säähavainnot ja -ennusteet.

Kartan vaihtaminen: klikkaa mustalla rastilla varustettuja vihreitä pisteitä, niin voit zoomata sisään; viivalla varustettua vihreää pistettä, niin voit zoomata ulos tai vihreitä nuolia, niin pääset viereisille kartoille.


METAR-TAF: